Schedule Details

Flight Number: ASX305X
Departure: Amsterdam Schiphol (EHAM) at 10:40Z
Arrival: Gdansk im. Lecha Walesy (EPGD) at 12:40Z

Weather Information
EHAM 272255Z 12005KT 090V150 CAVOK 19/15 Q1017 NOSIG
EPGD 272300Z 06004KT 020V110 CAVOK 16/15 Q1025

Schedule Frequency

Route Map